Time;durP1;ratioP1;P1;durP2;ratioP2;P2;SDS_P1;SDS_P2;PMS_P1;PMS_P2;Temp;Humidity;BMP_temperature;BMP_pressure;BME280_temperature;BME280_humidity;BME280_pressure;Samples;Min_cycle;Max_cycle;Signal;HPM_P1;HPM_P2
2023/12/05 00:00:24;;;;;;;5.35;4.07;;;;;;;;;;5048375;28;20520;-74
2023/12/05 00:02:50;;;;;;;4.70;3.67;;;;;;;;;;5047725;28;20049;-74
2023/12/05 00:05:15;;;;;;;5.18;4.03;;;;;;;;;;5047605;28;20102;-74
2023/12/05 00:07:42;;;;;;;4.65;3.72;;;;;;;;;;5039080;28;20048;-74
2023/12/05 00:10:08;;;;;;;5.05;4.00;;;;;;;;;;5047841;28;20033;-73
2023/12/05 00:12:33;;;;;;;5.18;4.25;;;;;;;;;;5049160;28;20476;-73
2023/12/05 00:14:58;;;;;;;4.93;3.95;;;;;;;;;;5048176;28;20041;-74
2023/12/05 00:17:24;;;;;;;4.57;3.60;;;;;;;;;;5048114;28;20033;-73
2023/12/05 00:19:49;;;;;;;5.32;3.80;;;;;;;;;;5047191;28;20828;-74
2023/12/05 00:22:14;;;;;;;4.60;3.90;;;;;;;;;;5047678;28;20044;-74
2023/12/05 00:24:39;;;;;;;4.90;4.07;;;;;;;;;;5047439;28;20287;-74
2023/12/05 00:27:05;;;;;;;5.00;3.78;;;;;;;;;;5037848;28;20426;-74
2023/12/05 00:29:30;;;;;;;4.88;4.10;;;;;;;;;;5046141;28;20505;-74
2023/12/05 00:31:55;;;;;;;4.72;3.83;;;;;;;;;;5042731;28;20037;-73
2023/12/05 00:34:21;;;;;;;4.55;4.00;;;;;;;;;;5019890;28;20065;-74
2023/12/05 00:36:46;;;;;;;6.13;3.88;;;;;;;;;;5033220;28;20043;-74
2023/12/05 00:39:11;;;;;;;5.20;3.90;;;;;;;;;;5044400;28;20049;-74
2023/12/05 00:41:36;;;;;;;4.72;3.75;;;;;;;;;;5046216;28;20044;-73
2023/12/05 00:44:02;;;;;;;5.05;3.70;;;;;;;;;;5047307;28;20067;-74
2023/12/05 00:46:27;;;;;;;5.05;4.05;;;;;;;;;;5025680;28;20045;-73
2023/12/05 00:48:53;;;;;;;5.22;3.85;;;;;;;;;;5041751;28;20036;-74
2023/12/05 00:51:18;;;;;;;6.38;3.70;;;;;;;;;;5041333;28;20040;-74
2023/12/05 00:53:43;;;;;;;4.53;3.58;;;;;;;;;;5039827;28;20062;-74
2023/12/05 00:56:10;;;;;;;4.85;3.90;;;;;;;;;;5049157;28;20099;-73
2023/12/05 00:58:35;;;;;;;5.80;3.95;;;;;;;;;;5047135;28;20114;-74
2023/12/05 01:01:01;;;;;;;5.63;3.75;;;;;;;;;;5045177;28;20498;-73
2023/12/05 01:03:26;;;;;;;4.00;3.60;;;;;;;;;;5047062;28;20045;-73
2023/12/05 01:05:51;;;;;;;5.03;3.95;;;;;;;;;;5043711;28;20025;-72
2023/12/05 01:08:16;;;;;;;5.22;4.05;;;;;;;;;;5036608;28;20370;-73
2023/12/05 01:10:42;;;;;;;4.68;3.55;;;;;;;;;;5043666;28;20033;-73
2023/12/05 01:13:07;;;;;;;5.25;4.03;;;;;;;;;;5044911;28;20032;-73
2023/12/05 01:15:33;;;;;;;5.20;3.60;;;;;;;;;;5046697;28;20099;-73
2023/12/05 01:17:58;;;;;;;5.75;3.80;;;;;;;;;;5046227;28;20059;-73
2023/12/05 01:20:23;;;;;;;5.55;3.95;;;;;;;;;;5047088;28;20112;-72
2023/12/05 01:22:49;;;;;;;4.20;3.50;;;;;;;;;;5042399;28;20097;-73
2023/12/05 01:25:14;;;;;;;4.50;3.78;;;;;;;;;;5045079;28;20063;-73
2023/12/05 01:27:39;;;;;;;5.05;3.97;;;;;;;;;;5044250;28;20105;-73
2023/12/05 01:30:05;;;;;;;4.55;3.42;;;;;;;;;;5023138;28;20025;-73
2023/12/05 01:32:30;;;;;;;4.38;3.67;;;;;;;;;;5044493;28;20036;-73
2023/12/05 01:34:56;;;;;;;4.45;3.33;;;;;;;;;;5046339;28;20025;-73
2023/12/05 01:37:22;;;;;;;3.80;3.28;;;;;;;;;;5046045;28;20441;-73
2023/12/05 01:39:47;;;;;;;5.03;3.63;;;;;;;;;;5043816;28;20017;-73
2023/12/05 01:42:13;;;;;;;4.40;3.40;;;;;;;;;;5044538;28;20013;-74
2023/12/05 01:44:38;;;;;;;3.95;3.55;;;;;;;;;;5030759;28;20069;-73
2023/12/05 01:47:03;;;;;;;5.35;3.63;;;;;;;;;;5042111;28;20056;-74
2023/12/05 01:49:29;;;;;;;3.92;3.33;;;;;;;;;;5041582;28;20490;-73
2023/12/05 01:51:54;;;;;;;4.80;3.45;;;;;;;;;;5028098;28;20181;-73
2023/12/05 01:54:19;;;;;;;4.88;3.55;;;;;;;;;;5044730;28;20031;-74
2023/12/05 01:56:45;;;;;;;5.18;3.55;;;;;;;;;;5029125;28;20420;-73
2023/12/05 01:59:10;;;;;;;5.00;3.63;;;;;;;;;;5044718;28;20017;-73
2023/12/05 02:01:36;;;;;;;4.93;3.50;;;;;;;;;;5027516;28;20052;-72
2023/12/05 02:04:01;;;;;;;4.60;3.40;;;;;;;;;;5045513;28;20048;-73
2023/12/05 02:06:27;;;;;;;4.13;3.40;;;;;;;;;;5044850;28;20549;-72
2023/12/05 02:08:52;;;;;;;4.68;3.50;;;;;;;;;;5044997;28;20112;-73
2023/12/05 02:11:18;;;;;;;3.40;2.70;;;;;;;;;;5060034;28;20354;-73
2023/12/05 02:13:43;;;;;;;4.38;3.22;;;;;;;;;;5045218;28;20021;-73
2023/12/05 02:16:27;;;;;;;4.25;3.08;;;;;;;;;;5041462;28;20454;-73
2023/12/05 02:18:55;;;;;;;4.28;3.35;;;;;;;;;;5034625;28;20029;-73
2023/12/05 02:21:25;;;;;;;4.35;3.50;;;;;;;;;;5044684;28;20032;-73
2023/12/05 02:23:53;;;;;;;4.43;3.47;;;;;;;;;;5044762;28;20045;-74
2023/12/05 02:26:33;;;;;;;4.25;3.25;;;;;;;;;;5046156;28;20076;-74
2023/12/05 02:28:59;;;;;;;4.00;3.03;;;;;;;;;;5045208;28;20083;-73
2023/12/05 02:31:24;;;;;;;4.15;3.10;;;;;;;;;;5044449;28;20041;-74
2023/12/05 02:33:49;;;;;;;4.13;3.28;;;;;;;;;;5044832;28;20502;-74
2023/12/05 02:36:33;;;;;;;4.47;3.40;;;;;;;;;;5038556;28;20412;-73
2023/12/05 02:39:07;;;;;;;4.10;3.30;;;;;;;;;;5046062;28;20517;-73
2023/12/05 02:41:32;;;;;;;3.58;3.20;;;;;;;;;;5030600;28;20036;-73
2023/12/05 02:43:59;;;;;;;3.85;2.90;;;;;;;;;;5040964;28;20037;-73
2023/12/05 02:46:24;;;;;;;3.70;3.10;;;;;;;;;;5027752;28;20477;-73
2023/12/05 02:48:50;;;;;;;4.03;3.40;;;;;;;;;;5046007;28;20120;-73
2023/12/05 02:51:15;;;;;;;3.67;3.30;;;;;;;;;;5044254;28;20282;-73
2023/12/05 02:53:41;;;;;;;5.03;3.63;;;;;;;;;;5044753;28;20040;-74
2023/12/05 02:56:06;;;;;;;3.85;2.97;;;;;;;;;;5047466;28;20037;-73
2023/12/05 02:58:32;;;;;;;3.92;2.97;;;;;;;;;;5047809;28;20124;-73
2023/12/05 03:00:57;;;;;;;3.88;3.15;;;;;;;;;;5045984;28;20402;-74
2023/12/05 03:03:22;;;;;;;4.10;2.90;;;;;;;;;;5044030;28;20049;-73
2023/12/05 03:05:47;;;;;;;4.22;3.00;;;;;;;;;;5049581;28;20036;-73
2023/12/05 03:08:13;;;;;;;4.63;3.28;;;;;;;;;;5048956;28;20029;-73
2023/12/05 03:10:38;;;;;;;3.90;2.97;;;;;;;;;;5054854;28;20101;-74
2023/12/05 03:13:03;;;;;;;4.65;3.20;;;;;;;;;;5043993;28;20040;-73
2023/12/05 03:15:28;;;;;;;4.07;2.88;;;;;;;;;;5052002;28;20040;-74
2023/12/05 03:17:54;;;;;;;3.63;3.00;;;;;;;;;;5050048;28;20037;-74
2023/12/05 03:20:19;;;;;;;4.65;3.40;;;;;;;;;;5038955;28;20044;-74
2023/12/05 03:22:44;;;;;;;3.70;3.10;;;;;;;;;;5047376;28;20072;-74
2023/12/05 03:25:10;;;;;;;3.30;2.70;;;;;;;;;;5034241;28;20033;-74
2023/12/05 03:27:35;;;;;;;3.70;2.88;;;;;;;;;;5038216;28;20033;-74
2023/12/05 03:30:00;;;;;;;3.67;3.08;;;;;;;;;;5047576;28;20036;-74
2023/12/05 03:32:26;;;;;;;3.70;2.90;;;;;;;;;;5047154;28;20037;-74
2023/12/05 03:34:51;;;;;;;3.80;3.20;;;;;;;;;;5043005;28;20061;-75
2023/12/05 03:37:17;;;;;;;4.05;3.00;;;;;;;;;;5048454;28;20035;-74
2023/12/05 03:39:42;;;;;;;4.00;2.85;;;;;;;;;;5029805;28;20533;-73
2023/12/05 03:42:07;;;;;;;3.63;3.22;;;;;;;;;;5048740;28;20037;-73
2023/12/05 03:44:32;;;;;;;3.95;3.00;;;;;;;;;;5062463;28;20103;-73
2023/12/05 03:46:58;;;;;;;3.83;2.88;;;;;;;;;;5047028;28;20025;-73
2023/12/05 03:49:23;;;;;;;4.07;2.85;;;;;;;;;;5034180;28;20344;-73
2023/12/05 03:51:48;;;;;;;3.75;2.70;;;;;;;;;;5047607;28;20033;-73
2023/12/05 03:54:14;;;;;;;3.80;2.75;;;;;;;;;;5046568;28;20433;-73
2023/12/05 03:56:39;;;;;;;4.78;2.90;;;;;;;;;;5048372;28;20060;-73
2023/12/05 03:59:04;;;;;;;3.72;2.88;;;;;;;;;;5048068;28;20047;-73
2023/12/05 04:01:30;;;;;;;3.50;2.80;;;;;;;;;;5047881;28;20044;-73
2023/12/05 04:03:55;;;;;;;4.07;2.95;;;;;;;;;;5047280;28;20112;-73
2023/12/05 04:06:21;;;;;;;3.28;2.70;;;;;;;;;;5042188;28;20074;-74
2023/12/05 04:08:47;;;;;;;3.67;2.50;;;;;;;;;;5048086;28;20652;-73
2023/12/05 04:11:12;;;;;;;3.13;2.70;;;;;;;;;;5057931;28;20124;-72
2023/12/05 04:13:37;;;;;;;3.30;2.58;;;;;;;;;;5063949;28;20506;-73
2023/12/05 04:16:03;;;;;;;3.15;2.58;;;;;;;;;;5056669;28;20440;-73
2023/12/05 04:18:28;;;;;;;2.97;2.13;;;;;;;;;;5048928;28;20109;-73
2023/12/05 04:20:54;;;;;;;3.33;2.55;;;;;;;;;;5044283;28;20075;-73
2023/12/05 04:23:19;;;;;;;3.95;2.67;;;;;;;;;;5048495;28;20053;-73
2023/12/05 04:25:44;;;;;;;3.17;2.42;;;;;;;;;;5047925;28;20036;-73
2023/12/05 04:28:10;;;;;;;3.30;2.47;;;;;;;;;;5046850;28;20037;-73
2023/12/05 04:30:35;;;;;;;4.00;2.90;;;;;;;;;;5046391;28;20104;-73
2023/12/05 04:33:01;;;;;;;3.80;2.70;;;;;;;;;;5046894;28;20136;-74
2023/12/05 04:35:26;;;;;;;2.92;2.38;;;;;;;;;;5042790;28;20029;-73
2023/12/05 04:37:51;;;;;;;2.80;2.28;;;;;;;;;;5046310;28;20110;-73
2023/12/05 04:40:19;;;;;;;3.15;2.60;;;;;;;;;;5039388;28;20422;-73
2023/12/05 04:42:44;;;;;;;4.30;3.03;;;;;;;;;;5047550;28;20041;-73
2023/12/05 04:45:09;;;;;;;3.35;2.40;;;;;;;;;;5045318;28;20069;-73
2023/12/05 04:47:34;;;;;;;3.55;2.47;;;;;;;;;;5038605;28;20037;-74
2023/12/05 04:50:00;;;;;;;2.95;2.42;;;;;;;;;;5043946;28;20099;-73
2023/12/05 04:52:25;;;;;;;3.45;2.50;;;;;;;;;;5040665;28;20148;-73
2023/12/05 04:54:50;;;;;;;2.80;2.30;;;;;;;;;;5047329;28;20029;-73
2023/12/05 04:57:15;;;;;;;3.65;2.30;;;;;;;;;;5047414;28;20040;-73
2023/12/05 04:59:41;;;;;;;3.38;2.38;;;;;;;;;;5045946;28;20153;-73
2023/12/05 05:02:06;;;;;;;2.88;2.17;;;;;;;;;;5038893;28;20434;-71
2023/12/05 05:04:31;;;;;;;3.55;2.58;;;;;;;;;;5046386;28;20048;-73
2023/12/05 05:06:57;;;;;;;2.92;2.47;;;;;;;;;;5046015;28;20035;-73
2023/12/05 05:09:22;;;;;;;3.33;2.35;;;;;;;;;;5040005;28;20037;-73
2023/12/05 05:11:47;;;;;;;3.95;2.10;;;;;;;;;;5041015;28;20055;-72
2023/12/05 05:14:12;;;;;;;3.78;2.60;;;;;;;;;;5041171;28;20052;-72
2023/12/05 05:16:38;;;;;;;2.67;2.00;;;;;;;;;;5041628;28;20178;-73
2023/12/05 05:19:03;;;;;;;3.08;2.28;;;;;;;;;;5042474;28;20039;-73
2023/12/05 05:21:28;;;;;;;3.28;2.42;;;;;;;;;;5046656;28;20119;-72
2023/12/05 05:23:54;;;;;;;2.85;2.17;;;;;;;;;;5040009;28;20658;-73
2023/12/05 05:26:19;;;;;;;2.90;2.17;;;;;;;;;;5043186;28;20457;-73
2023/12/05 05:28:44;;;;;;;3.10;2.10;;;;;;;;;;5045050;28;20045;-73
2023/12/05 05:31:10;;;;;;;2.95;2.20;;;;;;;;;;5044049;28;20064;-73
2023/12/05 05:33:35;;;;;;;3.83;2.10;;;;;;;;;;5036269;28;20128;-72
2023/12/05 05:36:00;;;;;;;3.28;2.13;;;;;;;;;;5036614;28;20120;-74
2023/12/05 05:38:25;;;;;;;3.08;2.10;;;;;;;;;;5050326;28;20033;-73
2023/12/05 05:40:53;;;;;;;2.88;2.05;;;;;;;;;;5034518;28;20037;-73
2023/12/05 05:43:18;;;;;;;3.42;2.28;;;;;;;;;;5034407;28;21530;-73
2023/12/05 05:45:43;;;;;;;2.72;2.10;;;;;;;;;;5025712;28;20033;-73
2023/12/05 05:48:08;;;;;;;2.72;1.92;;;;;;;;;;5036757;28;20068;-73
2023/12/05 05:50:34;;;;;;;3.90;2.20;;;;;;;;;;5034082;28;21657;-73
2023/12/05 05:52:59;;;;;;;3.05;2.00;;;;;;;;;;5041413;28;20494;-74
2023/12/05 05:55:26;;;;;;;2.85;2.05;;;;;;;;;;5057253;28;20040;-73
2023/12/05 05:57:52;;;;;;;3.17;2.00;;;;;;;;;;5035789;28;20438;-73
2023/12/05 06:00:17;;;;;;;2.15;1.90;;;;;;;;;;5050666;28;20040;-72
2023/12/05 06:02:43;;;;;;;2.50;1.80;;;;;;;;;;5039270;28;20466;-73
2023/12/05 06:05:09;;;;;;;3.65;2.13;;;;;;;;;;5045450;28;20040;-73
2023/12/05 06:07:35;;;;;;;3.60;2.05;;;;;;;;;;5033653;28;20095;-72
2023/12/05 06:10:19;;;;;;;3.55;2.00;;;;;;;;;;5025667;28;20654;-73
2023/12/05 06:12:44;;;;;;;2.58;1.80;;;;;;;;;;5037193;28;20041;-72
2023/12/05 06:15:10;;;;;;;3.58;1.83;;;;;;;;;;5032833;28;20037;-72
2023/12/05 06:17:35;;;;;;;2.78;1.95;;;;;;;;;;5035147;28;20052;-73
2023/12/05 06:20:02;;;;;;;2.40;1.80;;;;;;;;;;5040732;28;20444;-72
2023/12/05 06:22:27;;;;;;;2.88;2.08;;;;;;;;;;5019684;28;20041;-72
2023/12/05 06:24:53;;;;;;;2.97;1.70;;;;;;;;;;5037071;28;20027;-71
2023/12/05 06:27:18;;;;;;;2.60;1.88;;;;;;;;;;5039830;28;20031;-71
2023/12/05 06:29:44;;;;;;;2.80;2.05;;;;;;;;;;5036486;28;20383;-72
2023/12/05 06:32:10;;;;;;;2.53;1.80;;;;;;;;;;5053333;28;20017;-70
2023/12/05 06:34:38;;;;;;;3.03;1.98;;;;;;;;;;5048056;28;20052;-71
2023/12/05 06:37:04;;;;;;;3.33;2.10;;;;;;;;;;5013992;28;20470;-73
2023/12/05 06:39:29;;;;;;;2.42;1.70;;;;;;;;;;5036342;28;20029;-72
2023/12/05 06:41:55;;;;;;;3.63;1.77;;;;;;;;;;5021115;28;20531;-72
2023/12/05 06:44:21;;;;;;;2.20;1.70;;;;;;;;;;5034278;28;20229;-71
2023/12/05 06:46:47;;;;;;;2.85;1.98;;;;;;;;;;5033741;28;20025;-71
2023/12/05 06:49:12;;;;;;;2.45;1.88;;;;;;;;;;5033945;28;20055;-72
2023/12/05 06:51:39;;;;;;;2.30;1.73;;;;;;;;;;5013752;28;20078;-71
2023/12/05 06:54:05;;;;;;;3.50;1.70;;;;;;;;;;5030994;28;20032;-72
2023/12/05 06:56:30;;;;;;;2.17;1.70;;;;;;;;;;5013798;28;20038;-72
2023/12/05 06:58:56;;;;;;;2.60;1.95;;;;;;;;;;5031409;28;20464;-72
2023/12/05 07:01:22;;;;;;;3.50;2.17;;;;;;;;;;5013923;28;20032;-72
2023/12/05 07:03:47;;;;;;;2.08;1.40;;;;;;;;;;5044144;28;20419;-72
2023/12/05 07:06:13;;;;;;;3.22;1.88;;;;;;;;;;5034709;28;20036;-75
2023/12/05 07:08:39;;;;;;;2.15;1.67;;;;;;;;;;5047126;28;20039;-74
2023/12/05 07:11:04;;;;;;;2.30;1.80;;;;;;;;;;5020184;28;20075;-72
2023/12/05 07:13:29;;;;;;;3.53;1.90;;;;;;;;;;5039041;28;20612;-72
2023/12/05 07:15:56;;;;;;;2.50;1.83;;;;;;;;;;5031903;28;20044;-71
2023/12/05 07:18:22;;;;;;;2.83;2.15;;;;;;;;;;5038620;28;20048;-73
2023/12/05 07:20:48;;;;;;;3.10;1.73;;;;;;;;;;5034961;28;20036;-73
2023/12/05 07:23:15;;;;;;;2.35;1.73;;;;;;;;;;5038851;28;20124;-72
2023/12/05 07:25:40;;;;;;;2.90;1.85;;;;;;;;;;5031203;28;20040;-72
2023/12/05 07:28:07;;;;;;;3.22;2.00;;;;;;;;;;5038546;28;20436;-72
2023/12/05 07:30:33;;;;;;;2.53;1.73;;;;;;;;;;5014878;28;20029;-73
2023/12/05 07:32:58;;;;;;;3.75;2.20;;;;;;;;;;5038252;28;20040;-72
2023/12/05 07:35:24;;;;;;;2.53;1.67;;;;;;;;;;5041104;28;20405;-72
2023/12/05 07:37:49;;;;;;;2.80;1.80;;;;;;;;;;5042161;28;20113;-74
2023/12/05 07:40:15;;;;;;;2.90;1.80;;;;;;;;;;5042993;28;20044;-75
2023/12/05 07:42:40;;;;;;;2.30;1.58;;;;;;;;;;5042370;28;20045;-75
2023/12/05 07:45:07;;;;;;;2.55;1.90;;;;;;;;;;5041308;28;20104;-76
2023/12/05 07:47:33;;;;;;;2.17;1.67;;;;;;;;;;5039629;28;20460;-76
2023/12/05 07:49:58;;;;;;;2.47;1.77;;;;;;;;;;5043784;28;20094;-76
2023/12/05 07:52:23;;;;;;;3.13;1.70;;;;;;;;;;5043532;28;20555;-76
2023/12/05 07:54:49;;;;;;;3.60;1.83;;;;;;;;;;5042707;28;20037;-74
2023/12/05 07:57:21;;;;;;;3.17;1.88;;;;;;;;;;5034958;28;20071;-75
2023/12/05 07:59:47;;;;;;;3.13;1.85;;;;;;;;;;5043328;28;20037;-76
2023/12/05 08:02:12;;;;;;;3.17;2.10;;;;;;;;;;5042943;28;20029;-75
2023/12/05 08:04:37;;;;;;;2.97;1.83;;;;;;;;;;5043634;28;20052;-76
2023/12/05 08:07:03;;;;;;;3.83;1.83;;;;;;;;;;5041718;28;20102;-76
2023/12/05 08:09:28;;;;;;;4.60;2.10;;;;;;;;;;5037032;28;20265;-75
2023/12/05 08:11:53;;;;;;;3.05;2.00;;;;;;;;;;5044564;28;20386;-75
2023/12/05 08:14:19;;;;;;;2.92;2.00;;;;;;;;;;5045103;28;20041;-76
2023/12/05 08:16:46;;;;;;;2.83;1.83;;;;;;;;;;5043733;28;20605;-75
2023/12/05 08:19:11;;;;;;;3.80;2.20;;;;;;;;;;5036682;28;20036;-76
2023/12/05 08:21:37;;;;;;;3.58;2.40;;;;;;;;;;5043204;28;20033;-75
2023/12/05 08:24:02;;;;;;;2.90;2.00;;;;;;;;;;5043126;28;20075;-75
2023/12/05 08:26:28;;;;;;;2.70;1.80;;;;;;;;;;5038572;28;20041;-74
2023/12/05 08:28:53;;;;;;;2.83;1.90;;;;;;;;;;5047552;28;20153;-75
2023/12/05 08:31:18;;;;;;;3.95;2.20;;;;;;;;;;5044578;28;20075;-76
2023/12/05 08:33:44;;;;;;;2.90;1.92;;;;;;;;;;5043193;28;20260;-76
2023/12/05 08:36:09;;;;;;;3.95;2.47;;;;;;;;;;5043835;28;20033;-74
2023/12/05 09:52:10;;;;;;;3.75;2.47;;;;;;;;;;4955831;28;20083;-55
2023/12/05 10:50:37;;;;;;;4.50;2.40;;;;;;;;;;4899029;28;20154;-57
2023/12/05 10:53:08;;;;;;;3.83;2.67;;;;;;;;;;4829859;28;20588;-60
2023/12/05 10:55:43;;;;;;;3.80;2.60;;;;;;;;;;4915383;28;20141;-61
2023/12/05 10:58:19;;;;;;;4.00;2.80;;;;;;;;;;4904013;28;20028;-58
2023/12/05 11:00:58;;;;;;;3.72;2.63;;;;;;;;;;4896312;28;20354;-57
2023/12/05 11:03:32;;;;;;;2.70;2.03;;;;;;;;;;4889370;28;20278;-58
2023/12/05 11:21:46;;;;;;;3.78;2.70;;;;;;;;;;4983453;28;20068;-57
2023/12/05 11:30:44;;;;;;;3.47;2.58;;;;;;;;;;5001151;28;20065;-59
2023/12/05 11:33:38;;;;;;;3.97;2.80;;;;;;;;;;5015557;28;20029;-58
2023/12/05 11:36:04;;;;;;;3.72;2.50;;;;;;;;;;4979682;28;20038;-58
2023/12/05 11:38:29;;;;;;;4.30;2.55;;;;;;;;;;5057988;28;20499;-58
2023/12/05 11:41:10;;;;;;;3.47;2.60;;;;;;;;;;5057715;28;20041;-59
2023/12/05 11:43:36;;;;;;;3.00;2.35;;;;;;;;;;5054432;28;20045;-57
2023/12/05 11:46:02;;;;;;;2.97;2.47;;;;;;;;;;5042155;28;20123;-57
2023/12/05 11:48:29;;;;;;;2.95;2.33;;;;;;;;;;5039483;28;20044;-56
2023/12/05 11:50:54;;;;;;;3.47;2.40;;;;;;;;;;5052869;28;20040;-56
2023/12/05 11:53:20;;;;;;;4.15;2.22;;;;;;;;;;5035533;28;20033;-57
2023/12/05 11:55:47;;;;;;;3.30;2.40;;;;;;;;;;5040647;28;20113;-57
2023/12/05 11:58:28;;;;;;;3.13;2.20;;;;;;;;;;5041723;28;20036;-59
2023/12/05 12:00:59;;;;;;;3.97;2.50;;;;;;;;;;5052410;28;20460;-57
2023/12/05 12:03:26;;;;;;;4.95;2.60;;;;;;;;;;5055794;28;20414;-56
2023/12/05 12:06:00;;;;;;;4.47;2.72;;;;;;;;;;5049718;28;20086;-57
2023/12/05 12:08:25;;;;;;;4.13;2.42;;;;;;;;;;5040601;28;20040;-57
2023/12/05 12:10:50;;;;;;;4.28;2.58;;;;;;;;;;5060053;28;20045;-57
2023/12/05 12:13:16;;;;;;;5.20;2.40;;;;;;;;;;5041565;28;20036;-57
2023/12/05 12:15:41;;;;;;;5.10;2.65;;;;;;;;;;5054023;28;20036;-57
2023/12/05 12:18:07;;;;;;;5.53;2.80;;;;;;;;;;5039186;28;20036;-58
2023/12/05 12:20:32;;;;;;;3.20;2.40;;;;;;;;;;5058089;28;20056;-57
2023/12/05 12:22:57;;;;;;;3.58;2.40;;;;;;;;;;5052300;28;20193;-58
2023/12/05 12:25:24;;;;;;;3.60;2.55;;;;;;;;;;5060675;28;20497;-58
2023/12/05 12:27:49;;;;;;;4.53;2.58;;;;;;;;;;5062576;28;20675;-57
2023/12/05 12:30:17;;;;;;;3.50;2.55;;;;;;;;;;5059710;28;20036;-57
2023/12/05 12:32:53;;;;;;;3.50;2.60;;;;;;;;;;5058077;28;20426;-57
2023/12/05 12:35:22;;;;;;;3.42;2.50;;;;;;;;;;5058997;28;20044;-57
2023/12/05 12:37:47;;;;;;;4.93;2.70;;;;;;;;;;5046748;28;20654;-57
2023/12/05 12:40:14;;;;;;;3.70;2.38;;;;;;;;;;5060347;28;20215;-58
2023/12/05 12:42:40;;;;;;;3.45;2.40;;;;;;;;;;5054959;28;20041;-57
2023/12/05 12:45:07;;;;;;;3.80;2.75;;;;;;;;;;5059216;28;20045;-58
2023/12/05 12:47:32;;;;;;;3.70;2.40;;;;;;;;;;5062847;28;20119;-58
2023/12/05 12:50:00;;;;;;;4.88;2.80;;;;;;;;;;5026692;28;20237;-58
2023/12/05 12:52:25;;;;;;;3.35;2.60;;;;;;;;;;5060469;28;20127;-57
2023/12/05 12:54:50;;;;;;;5.93;2.80;;;;;;;;;;5042248;28;20599;-58
2023/12/05 12:57:15;;;;;;;3.78;2.67;;;;;;;;;;5038423;28;20505;-57
2023/12/05 12:59:41;;;;;;;3.90;2.50;;;;;;;;;;5060261;28;20123;-58
2023/12/05 13:02:06;;;;;;;3.83;2.42;;;;;;;;;;5063150;28;20070;-57
2023/12/05 13:04:34;;;;;;;3.72;2.38;;;;;;;;;;5060456;28;20596;-58
2023/12/05 13:06:59;;;;;;;3.38;2.30;;;;;;;;;;5045080;28;20036;-58
2023/12/05 13:09:25;;;;;;;3.38;2.30;;;;;;;;;;5056931;28;20564;-58
2023/12/05 13:11:50;;;;;;;3.72;2.70;;;;;;;;;;5054120;28;20067;-58
2023/12/05 13:14:17;;;;;;;3.15;2.33;;;;;;;;;;5043377;28;20171;-57
2023/12/05 13:16:42;;;;;;;4.35;3.00;;;;;;;;;;5056487;28;20060;-57
2023/12/05 13:19:27;;;;;;;4.07;2.50;;;;;;;;;;5051863;28;20536;-57
2023/12/05 13:21:52;;;;;;;4.32;2.53;;;;;;;;;;5052196;28;20041;-57
2023/12/05 13:24:18;;;;;;;4.22;2.50;;;;;;;;;;5052868;28;20109;-57
2023/12/05 13:26:43;;;;;;;3.28;2.45;;;;;;;;;;5052136;28;20048;-59
2023/12/05 13:29:08;;;;;;;3.90;2.33;;;;;;;;;;5057882;28;20029;-58
2023/12/05 13:31:35;;;;;;;3.80;2.58;;;;;;;;;;5064562;28;20087;-59
2023/12/05 13:34:01;;;;;;;3.85;2.33;;;;;;;;;;5061567;28;20039;-58
2023/12/05 13:36:26;;;;;;;2.63;1.95;;;;;;;;;;5043799;28;20434;-58
2023/12/05 13:38:53;;;;;;;3.42;2.33;;;;;;;;;;5059745;28;20226;-57
2023/12/05 13:41:18;;;;;;;4.18;2.50;;;;;;;;;;5051631;28;20453;-58
2023/12/05 13:43:43;;;;;;;3.40;2.40;;;;;;;;;;5055421;28;20045;-57
2023/12/05 13:46:11;;;;;;;4.30;2.45;;;;;;;;;;5055530;28;21991;-57
2023/12/05 13:48:37;;;;;;;3.95;2.60;;;;;;;;;;5042169;28;20040;-58
2023/12/05 13:51:03;;;;;;;3.42;2.45;;;;;;;;;;5055607;28;20043;-58
2023/12/05 13:53:29;;;;;;;4.18;2.53;;;;;;;;;;5060326;28;20044;-58
2023/12/05 13:55:54;;;;;;;3.92;2.40;;;;;;;;;;5058931;28;20494;-58
2023/12/05 13:58:20;;;;;;;3.22;2.40;;;;;;;;;;5037741;28;20037;-57
2023/12/05 14:00:45;;;;;;;3.47;2.35;;;;;;;;;;5054571;28;20111;-57
2023/12/05 14:03:10;;;;;;;4.45;2.45;;;;;;;;;;5057531;28;20706;-59
2023/12/05 14:05:36;;;;;;;3.30;2.40;;;;;;;;;;5053916;28;20520;-58
2023/12/05 14:08:01;;;;;;;3.40;2.25;;;;;;;;;;5042266;28;20048;-58
2023/12/05 14:10:26;;;;;;;3.22;2.50;;;;;;;;;;5052319;28;20522;-58
2023/12/05 14:12:52;;;;;;;3.25;2.50;;;;;;;;;;5055422;28;20040;-58
2023/12/05 14:15:17;;;;;;;4.25;2.30;;;;;;;;;;5042554;28;20043;-58
2023/12/05 14:17:42;;;;;;;3.42;2.33;;;;;;;;;;5054624;28;20028;-57
2023/12/05 14:20:10;;;;;;;3.85;2.33;;;;;;;;;;5056965;28;20470;-58
2023/12/05 14:22:36;;;;;;;3.85;2.17;;;;;;;;;;5055303;28;20032;-58
2023/12/05 14:25:01;;;;;;;3.70;2.42;;;;;;;;;;5052870;28;20033;-58
2023/12/05 14:27:26;;;;;;;2.97;2.10;;;;;;;;;;5061629;28;20142;-58
2023/12/05 14:29:52;;;;;;;3.38;2.30;;;;;;;;;;5045661;28;20032;-59
2023/12/05 14:32:17;;;;;;;3.13;2.15;;;;;;;;;;5059969;28;20037;-58
2023/12/05 14:34:42;;;;;;;4.15;2.42;;;;;;;;;;5057867;28;20032;-57
2023/12/05 14:37:07;;;;;;;3.78;2.50;;;;;;;;;;5055955;28;20112;-58
2023/12/05 14:39:33;;;;;;;3.40;2.15;;;;;;;;;;5035822;28;20537;-57
2023/12/05 14:41:58;;;;;;;3.67;2.40;;;;;;;;;;5056039;28;20536;-57
2023/12/05 14:44:25;;;;;;;3.13;2.30;;;;;;;;;;5050169;28;20728;-57
2023/12/05 14:46:50;;;;;;;3.13;2.10;;;;;;;;;;5060502;28;20025;-57
2023/12/05 14:49:16;;;;;;;2.88;2.10;;;;;;;;;;5063870;28;20287;-59
2023/12/05 14:51:42;;;;;;;3.47;2.50;;;;;;;;;;5039042;28;20036;-56
2023/12/05 14:54:07;;;;;;;3.78;2.80;;;;;;;;;;5059578;28;20041;-57
2023/12/05 14:56:32;;;;;;;3.58;2.38;;;;;;;;;;5061070;28;20051;-57
2023/12/05 14:58:58;;;;;;;3.13;2.28;;;;;;;;;;5058103;28;20430;-56
2023/12/05 15:01:23;;;;;;;3.50;2.47;;;;;;;;;;5067171;28;20079;-56
2023/12/05 15:03:49;;;;;;;3.72;2.22;;;;;;;;;;5066628;28;21057;-57
2023/12/05 15:06:15;;;;;;;3.17;2.20;;;;;;;;;;5067243;28;20434;-57
2023/12/05 15:08:40;;;;;;;3.97;2.03;;;;;;;;;;5030028;28;20025;-56
2023/12/05 15:11:06;;;;;;;3.60;2.30;;;;;;;;;;5065181;28;20032;-56
2023/12/05 15:13:31;;;;;;;3.38;2.40;;;;;;;;;;5047846;28;20037;-56
2023/12/05 15:15:56;;;;;;;2.83;1.98;;;;;;;;;;5066509;28;20411;-56
2023/12/05 15:18:22;;;;;;;2.85;2.20;;;;;;;;;;5065860;28;20036;-56
2023/12/05 15:23:31;;;;;;;3.53;2.20;;;;;;;;;;5066298;28;20682;-57
2023/12/05 15:25:58;;;;;;;3.22;2.22;;;;;;;;;;5067080;28;20029;-57
2023/12/05 15:28:27;;;;;;;3.03;2.05;;;;;;;;;;5064618;28;20490;-58
2023/12/05 15:30:52;;;;;;;3.83;2.15;;;;;;;;;;5065465;28;20445;-58
2023/12/05 15:33:18;;;;;;;3.47;2.30;;;;;;;;;;5065177;28;20052;-57
2023/12/05 15:35:43;;;;;;;3.25;2.30;;;;;;;;;;5065347;28;20079;-57
2023/12/05 15:38:08;;;;;;;3.05;2.13;;;;;;;;;;5064858;28;20062;-57
2023/12/05 15:40:33;;;;;;;3.00;2.08;;;;;;;;;;5055056;28;20040;-57
2023/12/05 15:42:59;;;;;;;3.35;2.20;;;;;;;;;;5053452;28;20499;-57
2023/12/05 15:45:24;;;;;;;2.67;1.98;;;;;;;;;;5054740;28;20039;-57
2023/12/05 15:47:50;;;;;;;3.13;2.22;;;;;;;;;;5055051;28;20063;-58
2023/12/05 15:50:16;;;;;;;3.10;2.15;;;;;;;;;;5053481;28;20132;-57
2023/12/05 15:52:42;;;;;;;2.95;1.92;;;;;;;;;;5031516;28;20044;-58
2023/12/05 15:55:07;;;;;;;3.97;2.63;;;;;;;;;;5048909;28;20440;-58
2023/12/05 15:57:32;;;;;;;3.17;2.15;;;;;;;;;;5020033;28;20544;-57
2023/12/05 15:59:58;;;;;;;3.22;2.22;;;;;;;;;;5049814;28;20116;-58
2023/12/05 16:02:25;;;;;;;2.58;1.90;;;;;;;;;;5038692;28;20773;-58
2023/12/05 16:04:50;;;;;;;3.42;2.22;;;;;;;;;;5049136;28;20522;-58
2023/12/05 16:07:15;;;;;;;3.55;1.98;;;;;;;;;;5035260;28;20067;-58
2023/12/05 16:09:41;;;;;;;3.17;2.15;;;;;;;;;;5021806;28;20039;-58
2023/12/05 16:12:06;;;;;;;2.85;1.92;;;;;;;;;;5053560;28;20036;-58
2023/12/05 16:14:31;;;;;;;3.95;2.22;;;;;;;;;;5053189;28;20036;-58
2023/12/05 16:16:57;;;;;;;2.90;2.00;;;;;;;;;;5053914;28;20494;-58
2023/12/05 16:19:22;;;;;;;3.55;1.83;;;;;;;;;;5053242;28;20070;-59
2023/12/05 16:21:47;;;;;;;2.97;2.05;;;;;;;;;;5035353;28;20028;-58
2023/12/05 16:24:13;;;;;;;3.17;2.20;;;;;;;;;;5054268;28;20730;-57
2023/12/05 16:26:38;;;;;;;2.88;2.03;;;;;;;;;;5053083;28;20024;-58
2023/12/05 16:29:04;;;;;;;3.38;2.20;;;;;;;;;;5053477;28;20017;-57
2023/12/05 16:31:29;;;;;;;3.30;2.05;;;;;;;;;;5033520;28;20081;-58
2023/12/05 16:33:54;;;;;;;2.58;1.92;;;;;;;;;;5055247;28;20031;-57
2023/12/05 16:36:24;;;;;;;2.85;2.00;;;;;;;;;;5053707;28;20044;-58
2023/12/05 16:38:49;;;;;;;2.78;2.08;;;;;;;;;;5052546;28;20032;-58
2023/12/05 16:41:14;;;;;;;2.85;1.95;;;;;;;;;;5052247;28;20457;-57
2023/12/05 16:43:39;;;;;;;2.80;2.05;;;;;;;;;;5052951;28;20281;-58
2023/12/05 16:46:05;;;;;;;2.72;2.15;;;;;;;;;;5054070;28;20032;-57
2023/12/05 16:48:30;;;;;;;3.65;2.10;;;;;;;;;;5051963;28;20055;-58
2023/12/05 16:50:55;;;;;;;3.45;2.17;;;;;;;;;;5052416;28;20049;-58
2023/12/05 16:53:21;;;;;;;2.60;1.88;;;;;;;;;;5053112;28;20048;-59
2023/12/05 16:55:46;;;;;;;3.28;1.98;;;;;;;;;;5037159;28;20699;-58
2023/12/05 16:58:12;;;;;;;4.75;2.35;;;;;;;;;;5052977;28;20126;-58
2023/12/05 17:00:37;;;;;;;3.50;2.25;;;;;;;;;;5054058;28;20878;-58
2023/12/05 17:03:02;;;;;;;4.95;2.17;;;;;;;;;;5052348;28;20026;-58
2023/12/05 17:05:28;;;;;;;3.53;2.13;;;;;;;;;;5037875;28;20029;-58
2023/12/05 17:07:53;;;;;;;2.85;1.90;;;;;;;;;;5037115;28;20025;-59
2023/12/05 17:10:18;;;;;;;3.58;2.33;;;;;;;;;;5052305;28;20036;-59